Terminal Aerodrome Forecast
Issued by NWS

Home | Current Version | Previous Version | Text Only | Print | Product List | Glossary On
Versions: 1 2 3 4 5 6 7 8 9 10 11 12 13
000
FTUS45 KABQ 301122
TAFSAF
TAF
KSAF 301122Z 3012/3112 01006KT P6SM FEW120
     FM301800 26008KT P6SM FEW090
     FM302100 24010KT P6SM VCSH SCT090 SCT140
     FM310200 01006KT P6SM SCT090 BKN120=

USA.gov is the U.S. government's official web portal to all federal, state and local government web resources and services.